sensor_id;sensor_type;location;lat;lon;timestamp;temperature;humidity
17154;DHT22;8692;52.164;7.558;2023-08-08T00:00:00;13.90;99.90
17154;DHT22;8692;52.164;7.558;2023-08-08T00:02:30;14.00;99.90
17154;DHT22;8692;52.164;7.558;2023-08-08T00:05:00;14.00;99.90
17154;DHT22;8692;52.164;7.558;2023-08-08T00:07:28;14.00;99.90
17154;DHT22;8692;52.164;7.558;2023-08-08T00:09:57;14.00;99.90
17154;DHT22;8692;52.164;7.558;2023-08-08T00:12:24;14.00;99.90
17154;DHT22;8692;52.164;7.558;2023-08-08T00:14:52;14.00;99.90
17154;DHT22;8692;52.164;7.558;2023-08-08T00:17:20;14.00;99.90
17154;DHT22;8692;52.164;7.558;2023-08-08T00:19:48;14.00;99.90
17154;DHT22;8692;52.164;7.558;2023-08-08T00:22:18;14.00;99.90
17154;DHT22;8692;52.164;7.558;2023-08-08T00:24:46;14.10;99.90
17154;DHT22;8692;52.164;7.558;2023-08-08T00:27:14;14.10;99.90
17154;DHT22;8692;52.164;7.558;2023-08-08T00:29:42;14.10;99.90
17154;DHT22;8692;52.164;7.558;2023-08-08T00:32:10;14.10;99.90
17154;DHT22;8692;52.164;7.558;2023-08-08T00:34:39;14.10;99.90
17154;DHT22;8692;52.164;7.558;2023-08-08T00:37:07;14.10;99.90
17154;DHT22;8692;52.164;7.558;2023-08-08T00:39:37;14.10;99.90
17154;DHT22;8692;52.164;7.558;2023-08-08T00:42:06;14.10;99.90
17154;DHT22;8692;52.164;7.558;2023-08-08T00:44:34;14.20;99.90
17154;DHT22;8692;52.164;7.558;2023-08-08T00:47:04;14.20;99.90
17154;DHT22;8692;52.164;7.558;2023-08-08T00:49:32;14.20;99.90
17154;DHT22;8692;52.164;7.558;2023-08-08T00:52:00;14.20;99.90
17154;DHT22;8692;52.164;7.558;2023-08-08T00:54:28;14.20;99.90
17154;DHT22;8692;52.164;7.558;2023-08-08T00:56:58;14.30;99.90
17154;DHT22;8692;52.164;7.558;2023-08-08T00:59:27;14.30;99.90
17154;DHT22;8692;52.164;7.558;2023-08-08T01:01:56;14.30;99.90
17154;DHT22;8692;52.164;7.558;2023-08-08T01:04:26;14.30;99.90
17154;DHT22;8692;52.164;7.558;2023-08-08T01:06:58;14.30;99.90
17154;DHT22;8692;52.164;7.558;2023-08-08T01:09:33;14.40;99.90
17154;DHT22;8692;52.164;7.558;2023-08-08T01:12:06;14.40;99.90
17154;DHT22;8692;52.164;7.558;2023-08-08T01:14:36;14.40;99.90
17154;DHT22;8692;52.164;7.558;2023-08-08T01:17:05;14.40;99.90
17154;DHT22;8692;52.164;7.558;2023-08-08T01:19:34;14.40;99.90
17154;DHT22;8692;52.164;7.558;2023-08-08T01:22:05;14.40;99.90
17154;DHT22;8692;52.164;7.558;2023-08-08T01:24:36;14.40;99.90
17154;DHT22;8692;52.164;7.558;2023-08-08T01:27:05;14.40;99.90
17154;DHT22;8692;52.164;7.558;2023-08-08T01:29:34;14.40;99.90
17154;DHT22;8692;52.164;7.558;2023-08-08T01:32:02;14.40;99.90
17154;DHT22;8692;52.164;7.558;2023-08-08T01:34:31;14.40;99.90
17154;DHT22;8692;52.164;7.558;2023-08-08T01:37:02;14.40;99.90
17154;DHT22;8692;52.164;7.558;2023-08-08T01:39:35;14.40;99.90
17154;DHT22;8692;52.164;7.558;2023-08-08T01:42:06;14.40;99.90
17154;DHT22;8692;52.164;7.558;2023-08-08T01:44:35;14.40;99.90
17154;DHT22;8692;52.164;7.558;2023-08-08T01:47:03;14.30;99.90
17154;DHT22;8692;52.164;7.558;2023-08-08T01:49:31;14.30;99.90
17154;DHT22;8692;52.164;7.558;2023-08-08T01:51:59;14.30;99.90
17154;DHT22;8692;52.164;7.558;2023-08-08T01:54:27;14.30;99.90
17154;DHT22;8692;52.164;7.558;2023-08-08T01:56:57;14.30;99.90
17154;DHT22;8692;52.164;7.558;2023-08-08T01:59:25;14.30;99.90
17154;DHT22;8692;52.164;7.558;2023-08-08T02:01:53;14.30;99.90
17154;DHT22;8692;52.164;7.558;2023-08-08T02:04:21;14.30;99.90
17154;DHT22;8692;52.164;7.558;2023-08-08T02:06:49;14.20;99.90
17154;DHT22;8692;52.164;7.558;2023-08-08T02:09:17;14.20;99.90
17154;DHT22;8692;52.164;7.558;2023-08-08T02:11:47;14.20;99.90
17154;DHT22;8692;52.164;7.558;2023-08-08T02:14:17;14.30;99.90
17154;DHT22;8692;52.164;7.558;2023-08-08T02:16:45;14.20;99.90
17154;DHT22;8692;52.164;7.558;2023-08-08T02:19:13;14.20;99.90
17154;DHT22;8692;52.164;7.558;2023-08-08T02:21:41;14.20;99.90
17154;DHT22;8692;52.164;7.558;2023-08-08T02:24:09;14.20;99.90
17154;DHT22;8692;52.164;7.558;2023-08-08T02:26:37;14.20;99.90
17154;DHT22;8692;52.164;7.558;2023-08-08T02:29:08;14.20;99.90
17154;DHT22;8692;52.164;7.558;2023-08-08T02:31:37;14.10;99.90
17154;DHT22;8692;52.164;7.558;2023-08-08T02:34:05;14.10;99.90
17154;DHT22;8692;52.164;7.558;2023-08-08T02:36:33;14.10;99.90
17154;DHT22;8692;52.164;7.558;2023-08-08T02:39:01;14.10;99.90
17154;DHT22;8692;52.164;7.558;2023-08-08T02:41:30;14.10;99.90
17154;DHT22;8692;52.164;7.558;2023-08-08T02:43:58;14.10;99.90
17154;DHT22;8692;52.164;7.558;2023-08-08T02:46:26;14.10;99.90
17154;DHT22;8692;52.164;7.558;2023-08-08T02:48:55;14.10;99.90
17154;DHT22;8692;52.164;7.558;2023-08-08T02:51:23;14.10;99.90
17154;DHT22;8692;52.164;7.558;2023-08-08T02:53:51;14.10;99.90
17154;DHT22;8692;52.164;7.558;2023-08-08T02:56:20;14.10;99.90
17154;DHT22;8692;52.164;7.558;2023-08-08T02:58:50;14.20;99.90
17154;DHT22;8692;52.164;7.558;2023-08-08T03:01:18;14.20;99.90
17154;DHT22;8692;52.164;7.558;2023-08-08T03:03:47;14.20;99.90
17154;DHT22;8692;52.164;7.558;2023-08-08T03:06:19;14.20;99.90
17154;DHT22;8692;52.164;7.558;2023-08-08T03:08:47;14.20;99.90
17154;DHT22;8692;52.164;7.558;2023-08-08T03:11:15;14.20;99.90
17154;DHT22;8692;52.164;7.558;2023-08-08T03:13:46;14.20;99.90
17154;DHT22;8692;52.164;7.558;2023-08-08T03:16:14;14.20;99.90
17154;DHT22;8692;52.164;7.558;2023-08-08T03:18:42;14.20;99.90
17154;DHT22;8692;52.164;7.558;2023-08-08T03:21:11;14.20;99.90
17154;DHT22;8692;52.164;7.558;2023-08-08T03:23:40;14.30;99.90
17154;DHT22;8692;52.164;7.558;2023-08-08T03:26:08;14.30;99.90
17154;DHT22;8692;52.164;7.558;2023-08-08T03:28:37;14.20;99.90
17154;DHT22;8692;52.164;7.558;2023-08-08T03:31:05;14.30;99.90
17154;DHT22;8692;52.164;7.558;2023-08-08T03:33:34;14.30;99.90
17154;DHT22;8692;52.164;7.558;2023-08-08T03:36:04;14.30;99.90
17154;DHT22;8692;52.164;7.558;2023-08-08T03:38:32;14.30;99.90
17154;DHT22;8692;52.164;7.558;2023-08-08T03:41:02;14.30;99.90
17154;DHT22;8692;52.164;7.558;2023-08-08T03:43:31;14.30;99.90
17154;DHT22;8692;52.164;7.558;2023-08-08T03:45:59;14.30;99.90
17154;DHT22;8692;52.164;7.558;2023-08-08T03:48:28;14.30;99.90
17154;DHT22;8692;52.164;7.558;2023-08-08T03:50:57;14.30;99.90
17154;DHT22;8692;52.164;7.558;2023-08-08T03:53:25;14.30;99.90
17154;DHT22;8692;52.164;7.558;2023-08-08T03:55:53;14.30;99.90
17154;DHT22;8692;52.164;7.558;2023-08-08T03:58:23;14.20;99.90
17154;DHT22;8692;52.164;7.558;2023-08-08T04:00:51;14.30;99.90
17154;DHT22;8692;52.164;7.558;2023-08-08T04:03:20;14.30;99.90
17154;DHT22;8692;52.164;7.558;2023-08-08T04:05:48;14.30;99.90
17154;DHT22;8692;52.164;7.558;2023-08-08T04:08:17;14.30;99.90
17154;DHT22;8692;52.164;7.558;2023-08-08T04:10:47;14.30;99.90
17154;DHT22;8692;52.164;7.558;2023-08-08T04:13:15;14.30;99.90
17154;DHT22;8692;52.164;7.558;2023-08-08T04:15:44;14.30;99.90
17154;DHT22;8692;52.164;7.558;2023-08-08T04:18:12;14.30;99.90
17154;DHT22;8692;52.164;7.558;2023-08-08T04:20:40;14.30;99.90
17154;DHT22;8692;52.164;7.558;2023-08-08T04:23:08;14.30;99.90
17154;DHT22;8692;52.164;7.558;2023-08-08T04:25:36;14.20;99.90
17154;DHT22;8692;52.164;7.558;2023-08-08T04:28:05;14.30;99.90
17154;DHT22;8692;52.164;7.558;2023-08-08T04:30:33;14.20;99.90
17154;DHT22;8692;52.164;7.558;2023-08-08T04:33:03;14.30;99.90
17154;DHT22;8692;52.164;7.558;2023-08-08T04:35:31;14.20;99.90
17154;DHT22;8692;52.164;7.558;2023-08-08T04:38:00;14.30;99.90
17154;DHT22;8692;52.164;7.558;2023-08-08T04:40:28;14.30;99.90
17154;DHT22;8692;52.164;7.558;2023-08-08T04:42:56;14.30;99.90
17154;DHT22;8692;52.164;7.558;2023-08-08T04:45:25;14.30;99.90
17154;DHT22;8692;52.164;7.558;2023-08-08T04:47:54;14.30;99.90
17154;DHT22;8692;52.164;7.558;2023-08-08T04:50:23;14.30;99.90
17154;DHT22;8692;52.164;7.558;2023-08-08T04:52:51;14.30;99.90
17154;DHT22;8692;52.164;7.558;2023-08-08T04:55:19;14.30;99.90
17154;DHT22;8692;52.164;7.558;2023-08-08T04:57:47;14.30;99.90
17154;DHT22;8692;52.164;7.558;2023-08-08T05:00:15;14.30;99.90
17154;DHT22;8692;52.164;7.558;2023-08-08T05:02:44;14.30;99.90
17154;DHT22;8692;52.164;7.558;2023-08-08T05:05:12;14.30;99.90
17154;DHT22;8692;52.164;7.558;2023-08-08T05:07:42;14.40;99.90
17154;DHT22;8692;52.164;7.558;2023-08-08T05:10:10;14.40;99.90
17154;DHT22;8692;52.164;7.558;2023-08-08T05:12:39;14.40;99.90
17154;DHT22;8692;52.164;7.558;2023-08-08T05:15:08;14.40;99.90
17154;DHT22;8692;52.164;7.558;2023-08-08T05:17:36;14.40;99.90
17154;DHT22;8692;52.164;7.558;2023-08-08T05:20:05;14.50;99.90
17154;DHT22;8692;52.164;7.558;2023-08-08T05:22:33;14.50;99.90
17154;DHT22;8692;52.164;7.558;2023-08-08T05:25:03;14.50;99.90
17154;DHT22;8692;52.164;7.558;2023-08-08T05:27:31;14.50;99.90
17154;DHT22;8692;52.164;7.558;2023-08-08T05:29:59;14.50;99.90
17154;DHT22;8692;52.164;7.558;2023-08-08T05:32:27;14.60;99.90
17154;DHT22;8692;52.164;7.558;2023-08-08T05:34:56;14.60;99.90
17154;DHT22;8692;52.164;7.558;2023-08-08T05:37:24;14.60;99.90
17154;DHT22;8692;52.164;7.558;2023-08-08T05:39:53;14.60;99.90
17154;DHT22;8692;52.164;7.558;2023-08-08T05:42:22;14.60;99.90
17154;DHT22;8692;52.164;7.558;2023-08-08T05:44:50;14.60;99.90
17154;DHT22;8692;52.164;7.558;2023-08-08T05:47:18;14.60;99.90
17154;DHT22;8692;52.164;7.558;2023-08-08T05:49:46;14.70;99.90
17154;DHT22;8692;52.164;7.558;2023-08-08T05:52:14;14.70;99.90
17154;DHT22;8692;52.164;7.558;2023-08-08T05:54:42;14.70;99.90
17154;DHT22;8692;52.164;7.558;2023-08-08T05:57:10;14.70;99.90
17154;DHT22;8692;52.164;7.558;2023-08-08T05:59:39;14.70;99.90
17154;DHT22;8692;52.164;7.558;2023-08-08T06:02:07;14.80;99.90
17154;DHT22;8692;52.164;7.558;2023-08-08T06:04:35;14.70;99.90
17154;DHT22;8692;52.164;7.558;2023-08-08T06:07:04;14.80;99.90
17154;DHT22;8692;52.164;7.558;2023-08-08T06:09:36;14.80;99.90
17154;DHT22;8692;52.164;7.558;2023-08-08T06:12:05;14.80;99.90
17154;DHT22;8692;52.164;7.558;2023-08-08T06:14:34;14.90;99.90
17154;DHT22;8692;52.164;7.558;2023-08-08T06:17:04;14.90;99.90
17154;DHT22;8692;52.164;7.558;2023-08-08T06:19:32;14.90;99.90
17154;DHT22;8692;52.164;7.558;2023-08-08T06:22:00;15.00;99.90
17154;DHT22;8692;52.164;7.558;2023-08-08T06:24:30;15.00;99.90
17154;DHT22;8692;52.164;7.558;2023-08-08T06:26:58;15.00;99.90
17154;DHT22;8692;52.164;7.558;2023-08-08T06:29:26;15.10;99.90
17154;DHT22;8692;52.164;7.558;2023-08-08T06:31:54;15.10;99.90
17154;DHT22;8692;52.164;7.558;2023-08-08T06:34:24;15.00;99.90
17154;DHT22;8692;52.164;7.558;2023-08-08T06:36:52;15.10;99.90
17154;DHT22;8692;52.164;7.558;2023-08-08T06:39:20;15.10;99.90
17154;DHT22;8692;52.164;7.558;2023-08-08T06:41:48;15.10;99.90
17154;DHT22;8692;52.164;7.558;2023-08-08T06:44:21;15.20;99.90
17154;DHT22;8692;52.164;7.558;2023-08-08T06:46:49;15.20;99.90
17154;DHT22;8692;52.164;7.558;2023-08-08T06:49:17;15.30;99.90
17154;DHT22;8692;52.164;7.558;2023-08-08T06:51:47;15.30;99.90
17154;DHT22;8692;52.164;7.558;2023-08-08T06:54:15;15.40;99.90
17154;DHT22;8692;52.164;7.558;2023-08-08T06:56:43;15.50;99.90
17154;DHT22;8692;52.164;7.558;2023-08-08T06:59:11;15.60;99.90
17154;DHT22;8692;52.164;7.558;2023-08-08T07:01:39;15.70;99.90
17154;DHT22;8692;52.164;7.558;2023-08-08T07:04:08;15.70;99.90
17154;DHT22;8692;52.164;7.558;2023-08-08T07:06:35;15.80;99.90
17154;DHT22;8692;52.164;7.558;2023-08-08T07:09:05;15.90;99.90
17154;DHT22;8692;52.164;7.558;2023-08-08T07:11:37;16.00;99.90
17154;DHT22;8692;52.164;7.558;2023-08-08T07:14:05;16.10;99.90
17154;DHT22;8692;52.164;7.558;2023-08-08T07:16:33;16.10;99.90
17154;DHT22;8692;52.164;7.558;2023-08-08T07:19:01;16.20;99.90
17154;DHT22;8692;52.164;7.558;2023-08-08T07:21:29;16.20;99.90
17154;DHT22;8692;52.164;7.558;2023-08-08T07:23:57;16.20;99.90
17154;DHT22;8692;52.164;7.558;2023-08-08T07:26:27;16.20;99.90
17154;DHT22;8692;52.164;7.558;2023-08-08T07:28:55;16.20;99.90
17154;DHT22;8692;52.164;7.558;2023-08-08T07:31:23;16.20;99.90
17154;DHT22;8692;52.164;7.558;2023-08-08T07:33:51;16.10;99.90
17154;DHT22;8692;52.164;7.558;2023-08-08T07:36:19;16.10;99.90
17154;DHT22;8692;52.164;7.558;2023-08-08T07:38:47;16.00;99.90
17154;DHT22;8692;52.164;7.558;2023-08-08T07:41:15;16.10;99.90
17154;DHT22;8692;52.164;7.558;2023-08-08T07:43:46;16.20;99.90
17154;DHT22;8692;52.164;7.558;2023-08-08T07:46:14;16.40;99.90
17154;DHT22;8692;52.164;7.558;2023-08-08T07:48:42;16.50;99.90
17154;DHT22;8692;52.164;7.558;2023-08-08T07:51:10;16.60;99.90
17154;DHT22;8692;52.164;7.558;2023-08-08T07:53:38;16.60;99.90
17154;DHT22;8692;52.164;7.558;2023-08-08T07:56:06;16.70;99.90
17154;DHT22;8692;52.164;7.558;2023-08-08T07:58:34;16.70;99.90
17154;DHT22;8692;52.164;7.558;2023-08-08T08:01:04;16.70;99.90
17154;DHT22;8692;52.164;7.558;2023-08-08T08:03:34;16.70;99.90
17154;DHT22;8692;52.164;7.558;2023-08-08T08:06:02;16.80;99.90
17154;DHT22;8692;52.164;7.558;2023-08-08T08:08:30;16.80;99.90
17154;DHT22;8692;52.164;7.558;2023-08-08T08:10:58;16.80;99.90
17154;DHT22;8692;52.164;7.558;2023-08-08T08:13:26;16.90;99.90
17154;DHT22;8692;52.164;7.558;2023-08-08T08:15:54;16.90;99.90
17154;DHT22;8692;52.164;7.558;2023-08-08T08:18:24;16.90;99.90
17154;DHT22;8692;52.164;7.558;2023-08-08T08:20:52;16.90;99.90
17154;DHT22;8692;52.164;7.558;2023-08-08T08:23:20;16.90;99.90
17154;DHT22;8692;52.164;7.558;2023-08-08T08:25:48;16.90;99.90
17154;DHT22;8692;52.164;7.558;2023-08-08T08:28:17;16.90;99.90
17154;DHT22;8692;52.164;7.558;2023-08-08T08:30:45;16.90;99.90
17154;DHT22;8692;52.164;7.558;2023-08-08T08:33:13;16.90;99.90
17154;DHT22;8692;52.164;7.558;2023-08-08T08:35:43;16.90;99.90
17154;DHT22;8692;52.164;7.558;2023-08-08T08:38:12;16.90;99.90
17154;DHT22;8692;52.164;7.558;2023-08-08T08:40:41;17.10;99.90
17154;DHT22;8692;52.164;7.558;2023-08-08T08:43:11;17.10;99.90
17154;DHT22;8692;52.164;7.558;2023-08-08T08:45:42;17.10;99.90
17154;DHT22;8692;52.164;7.558;2023-08-08T08:48:10;17.10;99.90
17154;DHT22;8692;52.164;7.558;2023-08-08T08:50:39;17.10;99.90
17154;DHT22;8692;52.164;7.558;2023-08-08T08:53:10;17.10;99.90
17154;DHT22;8692;52.164;7.558;2023-08-08T08:55:39;17.10;99.90
17154;DHT22;8692;52.164;7.558;2023-08-08T08:58:08;17.20;99.90
17154;DHT22;8692;52.164;7.558;2023-08-08T09:00:37;17.20;99.90
17154;DHT22;8692;52.164;7.558;2023-08-08T09:03:05;17.30;99.90
17154;DHT22;8692;52.164;7.558;2023-08-08T09:05:34;17.50;99.90
17154;DHT22;8692;52.164;7.558;2023-08-08T09:08:02;17.50;99.90
17154;DHT22;8692;52.164;7.558;2023-08-08T09:10:32;17.60;99.90
17154;DHT22;8692;52.164;7.558;2023-08-08T09:13:01;17.70;99.90
17154;DHT22;8692;52.164;7.558;2023-08-08T09:15:31;17.90;99.90
17154;DHT22;8692;52.164;7.558;2023-08-08T09:17:59;18.00;99.90
17154;DHT22;8692;52.164;7.558;2023-08-08T09:20:27;18.10;99.90
17154;DHT22;8692;52.164;7.558;2023-08-08T09:22:56;18.20;99.90
17154;DHT22;8692;52.164;7.558;2023-08-08T09:25:25;18.10;99.90
17154;DHT22;8692;52.164;7.558;2023-08-08T09:27:55;18.20;99.90
17154;DHT22;8692;52.164;7.558;2023-08-08T09:30:23;18.30;99.90
17154;DHT22;8692;52.164;7.558;2023-08-08T09:32:51;18.40;99.90
17154;DHT22;8692;52.164;7.558;2023-08-08T09:35:22;18.60;99.90
17154;DHT22;8692;52.164;7.558;2023-08-08T09:37:53;18.60;99.90
17154;DHT22;8692;52.164;7.558;2023-08-08T09:40:22;18.70;99.90
17154;DHT22;8692;52.164;7.558;2023-08-08T09:42:51;18.90;99.90
17154;DHT22;8692;52.164;7.558;2023-08-08T09:45:21;19.10;99.90
17154;DHT22;8692;52.164;7.558;2023-08-08T09:47:50;19.20;99.90
17154;DHT22;8692;52.164;7.558;2023-08-08T09:50:19;19.20;99.90
17154;DHT22;8692;52.164;7.558;2023-08-08T09:52:47;19.20;99.90
17154;DHT22;8692;52.164;7.558;2023-08-08T09:55:16;19.20;99.90
17154;DHT22;8692;52.164;7.558;2023-08-08T09:57:45;19.20;99.90
17154;DHT22;8692;52.164;7.558;2023-08-08T10:00:14;19.20;99.90
17154;DHT22;8692;52.164;7.558;2023-08-08T10:02:45;19.10;99.90
17154;DHT22;8692;52.164;7.558;2023-08-08T10:05:14;19.10;99.90
17154;DHT22;8692;52.164;7.558;2023-08-08T10:07:43;19.10;99.90
17154;DHT22;8692;52.164;7.558;2023-08-08T10:10:11;19.10;99.90
17154;DHT22;8692;52.164;7.558;2023-08-08T10:12:40;19.00;99.90
17154;DHT22;8692;52.164;7.558;2023-08-08T10:15:09;18.90;99.90
17154;DHT22;8692;52.164;7.558;2023-08-08T10:17:38;18.90;99.90
17154;DHT22;8692;52.164;7.558;2023-08-08T10:20:10;18.80;99.90
17154;DHT22;8692;52.164;7.558;2023-08-08T10:22:42;18.80;99.90
17154;DHT22;8692;52.164;7.558;2023-08-08T10:25:18;18.80;99.90
17154;DHT22;8692;52.164;7.558;2023-08-08T10:27:46;18.90;99.90
17154;DHT22;8692;52.164;7.558;2023-08-08T10:30:14;18.90;99.90
17154;DHT22;8692;52.164;7.558;2023-08-08T10:32:44;19.00;99.90
17154;DHT22;8692;52.164;7.558;2023-08-08T10:35:14;19.20;99.90
17154;DHT22;8692;52.164;7.558;2023-08-08T10:37:52;19.30;99.90
17154;DHT22;8692;52.164;7.558;2023-08-08T10:40:21;19.30;99.90
17154;DHT22;8692;52.164;7.558;2023-08-08T10:42:49;19.20;99.90
17154;DHT22;8692;52.164;7.558;2023-08-08T10:45:17;19.30;99.90
17154;DHT22;8692;52.164;7.558;2023-08-08T10:47:45;19.20;99.90
17154;DHT22;8692;52.164;7.558;2023-08-08T10:50:15;19.10;99.90
17154;DHT22;8692;52.164;7.558;2023-08-08T10:52:52;19.00;99.90
17154;DHT22;8692;52.164;7.558;2023-08-08T10:55:21;19.00;99.90
17154;DHT22;8692;52.164;7.558;2023-08-08T10:57:57;19.00;99.90
17154;DHT22;8692;52.164;7.558;2023-08-08T11:00:28;19.00;99.90
17154;DHT22;8692;52.164;7.558;2023-08-08T11:02:58;18.90;99.90
17154;DHT22;8692;52.164;7.558;2023-08-08T11:05:29;18.90;99.90
17154;DHT22;8692;52.164;7.558;2023-08-08T11:07:59;18.80;99.90
17154;DHT22;8692;52.164;7.558;2023-08-08T11:10:27;18.80;99.90
17154;DHT22;8692;52.164;7.558;2023-08-08T11:12:59;18.80;99.90
17154;DHT22;8692;52.164;7.558;2023-08-08T11:15:28;18.90;99.90
17154;DHT22;8692;52.164;7.558;2023-08-08T11:17:56;18.90;99.90
17154;DHT22;8692;52.164;7.558;2023-08-08T11:20:25;18.80;99.90
17154;DHT22;8692;52.164;7.558;2023-08-08T11:22:58;18.80;99.90
17154;DHT22;8692;52.164;7.558;2023-08-08T11:25:27;18.70;99.90
17154;DHT22;8692;52.164;7.558;2023-08-08T11:27:57;18.60;99.90
17154;DHT22;8692;52.164;7.558;2023-08-08T11:30:28;18.60;99.90
17154;DHT22;8692;52.164;7.558;2023-08-08T11:32:57;18.50;99.90
17154;DHT22;8692;52.164;7.558;2023-08-08T11:35:27;18.50;99.90
17154;DHT22;8692;52.164;7.558;2023-08-08T11:37:58;18.50;99.90
17154;DHT22;8692;52.164;7.558;2023-08-08T11:40:27;18.50;99.90
17154;DHT22;8692;52.164;7.558;2023-08-08T11:42:56;18.50;99.90
17154;DHT22;8692;52.164;7.558;2023-08-08T11:45:25;18.40;99.90
17154;DHT22;8692;52.164;7.558;2023-08-08T11:47:54;18.30;99.90
17154;DHT22;8692;52.164;7.558;2023-08-08T11:50:24;18.20;99.90
17154;DHT22;8692;52.164;7.558;2023-08-08T11:52:53;18.20;99.90
17154;DHT22;8692;52.164;7.558;2023-08-08T11:55:27;18.20;99.90
17154;DHT22;8692;52.164;7.558;2023-08-08T11:57:57;18.20;99.90
17154;DHT22;8692;52.164;7.558;2023-08-08T12:00:28;18.20;99.90
17154;DHT22;8692;52.164;7.558;2023-08-08T12:03:00;18.30;99.90
17154;DHT22;8692;52.164;7.558;2023-08-08T12:05:36;18.30;99.90
17154;DHT22;8692;52.164;7.558;2023-08-08T12:08:05;18.30;99.90
17154;DHT22;8692;52.164;7.558;2023-08-08T12:10:34;18.30;99.90
17154;DHT22;8692;52.164;7.558;2023-08-08T12:13:02;18.30;99.90
17154;DHT22;8692;52.164;7.558;2023-08-08T12:15:32;18.20;99.90
17154;DHT22;8692;52.164;7.558;2023-08-08T12:18:02;18.10;99.90
17154;DHT22;8692;52.164;7.558;2023-08-08T12:20:31;18.00;99.90
17154;DHT22;8692;52.164;7.558;2023-08-08T12:22:59;17.90;99.90
17154;DHT22;8692;52.164;7.558;2023-08-08T12:25:27;17.80;99.90
17154;DHT22;8692;52.164;7.558;2023-08-08T12:27:57;17.70;99.90
17154;DHT22;8692;52.164;7.558;2023-08-08T12:30:25;17.70;99.90
17154;DHT22;8692;52.164;7.558;2023-08-08T12:32:53;17.70;99.90
17154;DHT22;8692;52.164;7.558;2023-08-08T12:35:21;17.70;99.90
17154;DHT22;8692;52.164;7.558;2023-08-08T12:37:49;17.70;99.90
17154;DHT22;8692;52.164;7.558;2023-08-08T12:40:17;17.70;99.90
17154;DHT22;8692;52.164;7.558;2023-08-08T12:42:45;17.70;99.90
17154;DHT22;8692;52.164;7.558;2023-08-08T12:45:16;17.70;99.90
17154;DHT22;8692;52.164;7.558;2023-08-08T12:47:44;17.80;99.90
17154;DHT22;8692;52.164;7.558;2023-08-08T12:50:12;17.90;99.90
17154;DHT22;8692;52.164;7.558;2023-08-08T12:52:41;18.10;99.90
17154;DHT22;8692;52.164;7.558;2023-08-08T12:55:09;18.30;99.90
17154;DHT22;8692;52.164;7.558;2023-08-08T12:57:38;18.40;99.90
17154;DHT22;8692;52.164;7.558;2023-08-08T13:00:08;18.50;99.90
17154;DHT22;8692;52.164;7.558;2023-08-08T13:02:38;18.70;99.90
17154;DHT22;8692;52.164;7.558;2023-08-08T13:05:06;18.90;99.90
17154;DHT22;8692;52.164;7.558;2023-08-08T13:07:34;19.10;99.90
17154;DHT22;8692;52.164;7.558;2023-08-08T13:10:03;19.30;99.90
17154;DHT22;8692;52.164;7.558;2023-08-08T13:12:31;19.40;99.90
17154;DHT22;8692;52.164;7.558;2023-08-08T13:14:59;19.60;99.90
17154;DHT22;8692;52.164;7.558;2023-08-08T13:17:27;19.70;99.90
17154;DHT22;8692;52.164;7.558;2023-08-08T13:19:57;19.80;99.90
17154;DHT22;8692;52.164;7.558;2023-08-08T13:22:25;19.80;99.90
17154;DHT22;8692;52.164;7.558;2023-08-08T13:24:53;19.70;99.90
17154;DHT22;8692;52.164;7.558;2023-08-08T13:27:21;19.70;99.90
17154;DHT22;8692;52.164;7.558;2023-08-08T13:29:49;19.80;99.90
17154;DHT22;8692;52.164;7.558;2023-08-08T13:32:17;19.90;99.90
17154;DHT22;8692;52.164;7.558;2023-08-08T13:34:45;20.00;99.90
17154;DHT22;8692;52.164;7.558;2023-08-08T13:37:15;20.20;99.90
17154;DHT22;8692;52.164;7.558;2023-08-08T13:39:43;20.30;99.90
17154;DHT22;8692;52.164;7.558;2023-08-08T13:42:11;20.50;99.60
17154;DHT22;8692;52.164;7.558;2023-08-08T13:44:39;20.60;99.20
17154;DHT22;8692;52.164;7.558;2023-08-08T13:47:07;20.60;99.10
17154;DHT22;8692;52.164;7.558;2023-08-08T13:49:35;20.70;99.00
17154;DHT22;8692;52.164;7.558;2023-08-08T13:52:04;20.70;98.70
17154;DHT22;8692;52.164;7.558;2023-08-08T13:54:33;20.80;99.80
17154;DHT22;8692;52.164;7.558;2023-08-08T13:57:01;20.80;99.90
17154;DHT22;8692;52.164;7.558;2023-08-08T13:59:29;20.90;99.60
17154;DHT22;8692;52.164;7.558;2023-08-08T14:01:57;20.90;96.70
17154;DHT22;8692;52.164;7.558;2023-08-08T14:04:26;20.90;97.40
17154;DHT22;8692;52.164;7.558;2023-08-08T14:06:54;20.90;98.30
17154;DHT22;8692;52.164;7.558;2023-08-08T14:09:22;20.80;95.90
17154;DHT22;8692;52.164;7.558;2023-08-08T14:11:51;20.70;96.00
17154;DHT22;8692;52.164;7.558;2023-08-08T14:14:19;20.70;94.10
17154;DHT22;8692;52.164;7.558;2023-08-08T14:16:47;20.60;93.80
17154;DHT22;8692;52.164;7.558;2023-08-08T14:19:15;20.60;93.80
17154;DHT22;8692;52.164;7.558;2023-08-08T14:21:43;20.50;94.00
17154;DHT22;8692;52.164;7.558;2023-08-08T14:24:11;20.50;93.70
17154;DHT22;8692;52.164;7.558;2023-08-08T14:26:39;20.40;94.50
17154;DHT22;8692;52.164;7.558;2023-08-08T14:29:09;20.30;96.00
17154;DHT22;8692;52.164;7.558;2023-08-08T14:31:37;20.20;97.50
17154;DHT22;8692;52.164;7.558;2023-08-08T14:34:29;20.20;95.60
17154;DHT22;8692;52.164;7.558;2023-08-08T14:36:58;20.10;96.30
17154;DHT22;8692;52.164;7.558;2023-08-08T14:39:26;20.10;96.60
17154;DHT22;8692;52.164;7.558;2023-08-08T14:41:55;20.00;96.80
17154;DHT22;8692;52.164;7.558;2023-08-08T14:44:25;19.90;97.00
17154;DHT22;8692;52.164;7.558;2023-08-08T14:46:53;19.90;97.30
17154;DHT22;8692;52.164;7.558;2023-08-08T14:49:21;19.90;97.50
17154;DHT22;8692;52.164;7.558;2023-08-08T14:51:52;20.00;98.00
17154;DHT22;8692;52.164;7.558;2023-08-08T14:54:20;20.00;97.30
17154;DHT22;8692;52.164;7.558;2023-08-08T14:56:48;20.00;98.00
17154;DHT22;8692;52.164;7.558;2023-08-08T14:59:17;19.90;98.70
17154;DHT22;8692;52.164;7.558;2023-08-08T15:01:46;19.90;99.30
17154;DHT22;8692;52.164;7.558;2023-08-08T15:04:15;19.90;99.90
17154;DHT22;8692;52.164;7.558;2023-08-08T15:06:43;19.80;99.00
17154;DHT22;8692;52.164;7.558;2023-08-08T15:09:11;19.70;99.40
17154;DHT22;8692;52.164;7.558;2023-08-08T15:11:40;19.60;99.90
17154;DHT22;8692;52.164;7.558;2023-08-08T15:14:08;19.60;99.90
17154;DHT22;8692;52.164;7.558;2023-08-08T15:16:36;19.50;99.90
17154;DHT22;8692;52.164;7.558;2023-08-08T15:19:05;19.50;99.90
17154;DHT22;8692;52.164;7.558;2023-08-08T15:21:33;19.70;99.90
17154;DHT22;8692;52.164;7.558;2023-08-08T15:24:01;19.90;99.90
17154;DHT22;8692;52.164;7.558;2023-08-08T15:26:29;20.10;99.90
17154;DHT22;8692;52.164;7.558;2023-08-08T15:28:57;20.20;99.90
17154;DHT22;8692;52.164;7.558;2023-08-08T15:31:25;20.20;99.10
17154;DHT22;8692;52.164;7.558;2023-08-08T15:33:53;20.10;99.20
17154;DHT22;8692;52.164;7.558;2023-08-08T15:36:23;20.00;99.90
17154;DHT22;8692;52.164;7.558;2023-08-08T15:38:51;19.90;99.90
17154;DHT22;8692;52.164;7.558;2023-08-08T15:41:19;19.80;99.90
17154;DHT22;8692;52.164;7.558;2023-08-08T15:43:47;19.70;99.90
17154;DHT22;8692;52.164;7.558;2023-08-08T15:46:15;19.50;99.90
17154;DHT22;8692;52.164;7.558;2023-08-08T15:48:44;19.30;99.90
17154;DHT22;8692;52.164;7.558;2023-08-08T15:51:12;19.20;99.90
17154;DHT22;8692;52.164;7.558;2023-08-08T15:53:41;19.10;99.90